createdAt,value
2018-05-18T00:00:00.000Z,14.8
2018-05-18T00:05:00.000Z,14.8
2018-05-18T00:10:00.000Z,14.8
2018-05-18T00:15:00.000Z,14.8
2018-05-18T00:20:00.000Z,14.8
2018-05-18T00:25:00.000Z,14.8
2018-05-18T00:30:00.000Z,14.7
2018-05-18T00:35:00.000Z,14.7
2018-05-18T00:40:00.000Z,14.7
2018-05-18T00:45:00.000Z,14.7
2018-05-18T00:50:00.000Z,14.6
2018-05-18T00:55:00.000Z,14.6
2018-05-18T01:00:00.000Z,14.6
2018-05-18T01:05:00.000Z,14.6
2018-05-18T01:10:00.000Z,14.6
2018-05-18T01:15:00.000Z,14.5
2018-05-18T01:20:00.000Z,14.5
2018-05-18T01:25:00.000Z,14.5
2018-05-18T01:30:00.000Z,14.5
2018-05-18T01:35:00.000Z,14.5
2018-05-18T01:40:00.000Z,14.5
2018-05-18T01:45:00.000Z,14.5
2018-05-18T01:50:00.000Z,14.5
2018-05-18T01:55:00.000Z,14.5
2018-05-18T02:00:00.000Z,14.5
2018-05-18T02:05:00.000Z,14.5
2018-05-18T02:11:00.000Z,14.5
2018-05-18T02:16:00.000Z,14.5
2018-05-18T02:21:00.000Z,14.5
2018-05-18T02:26:00.000Z,14.4
2018-05-18T02:31:00.000Z,14.4
2018-05-18T02:36:00.000Z,14.4
2018-05-18T02:41:00.000Z,14.3
2018-05-18T02:46:00.000Z,14.3
2018-05-18T02:51:00.000Z,14.3
2018-05-18T02:56:00.000Z,14.3
2018-05-18T03:01:00.000Z,14.3
2018-05-18T03:06:00.000Z,14.3
2018-05-18T03:11:00.000Z,14.3
2018-05-18T03:16:00.000Z,14.2
2018-05-18T03:21:00.000Z,14.2
2018-05-18T03:26:00.000Z,14.1
2018-05-18T03:31:00.000Z,14.2
2018-05-18T03:36:00.000Z,14.2
2018-05-18T03:41:00.000Z,14.2
2018-05-18T03:46:00.000Z,14.2
2018-05-18T03:51:00.000Z,14.2
2018-05-18T03:56:00.000Z,14.2
2018-05-18T04:01:00.000Z,14.3
2018-05-18T04:06:00.000Z,14.4
2018-05-18T04:11:00.000Z,14.4
2018-05-18T04:16:00.000Z,14.4
2018-05-18T04:21:00.000Z,14.4
2018-05-18T04:26:00.000Z,14.4
2018-05-18T04:31:00.000Z,14.4
2018-05-18T04:36:00.000Z,14.4
2018-05-18T04:41:00.000Z,14.3
2018-05-18T04:46:00.000Z,14.2
2018-05-18T04:51:00.000Z,14.2
2018-05-18T04:56:00.000Z,14.2
2018-05-18T05:01:00.000Z,14.2
2018-05-18T05:06:00.000Z,14.3
2018-05-18T05:11:00.000Z,14.4
2018-05-18T05:16:00.000Z,14.5
2018-05-18T05:21:00.000Z,14.6
2018-05-18T05:26:00.000Z,14.7
2018-05-18T05:31:00.000Z,14.8
2018-05-18T05:36:00.000Z,14.9
2018-05-18T05:41:00.000Z,15.0
2018-05-18T05:46:00.000Z,15.1
2018-05-18T05:51:00.000Z,15.2
2018-05-18T05:56:00.000Z,15.3
2018-05-18T06:01:00.000Z,15.3
2018-05-18T06:06:00.000Z,15.3
2018-05-18T06:11:00.000Z,15.4
2018-05-18T06:16:00.000Z,15.4
2018-05-18T06:21:00.000Z,15.6
2018-05-18T06:26:00.000Z,15.7
2018-05-18T06:31:00.000Z,15.9
2018-05-18T06:36:00.000Z,16.0
2018-05-18T06:41:00.000Z,16.3
2018-05-18T06:46:00.000Z,16.4
2018-05-18T06:51:00.000Z,16.6
2018-05-18T06:56:00.000Z,16.7
2018-05-18T07:01:00.000Z,16.9
2018-05-18T07:06:00.000Z,17.0
2018-05-18T07:11:00.000Z,17.3
2018-05-18T07:16:00.000Z,17.6
2018-05-18T07:21:00.000Z,18.0
2018-05-18T07:26:00.000Z,18.3
2018-05-18T07:31:00.000Z,18.5
2018-05-18T07:36:00.000Z,18.7
2018-05-18T07:41:00.000Z,19.0
2018-05-18T07:46:00.000Z,19.1
2018-05-18T07:51:00.000Z,19.2
2018-05-18T07:56:00.000Z,19.4
2018-05-18T08:01:00.000Z,19.6
2018-05-18T08:06:00.000Z,19.7
2018-05-18T08:11:00.000Z,19.9
2018-05-18T08:17:00.000Z,20.0
2018-05-18T08:22:00.000Z,19.7
2018-05-18T08:27:00.000Z,19.5
2018-05-18T08:32:00.000Z,19.4
2018-05-18T08:37:00.000Z,19.3
2018-05-18T08:42:00.000Z,19.5
2018-05-18T08:47:00.000Z,19.6
2018-05-18T08:52:00.000Z,19.7
2018-05-18T08:57:00.000Z,19.8
2018-05-18T09:02:00.000Z,19.7
2018-05-18T09:07:00.000Z,19.5
2018-05-18T09:12:00.000Z,19.3
2018-05-18T09:17:00.000Z,19.3
2018-05-18T09:22:00.000Z,19.3
2018-05-18T09:27:00.000Z,19.7
2018-05-18T09:32:00.000Z,20.2
2018-05-18T09:37:00.000Z,20.0
2018-05-18T09:42:00.000Z,20.0
2018-05-18T09:47:00.000Z,20.1
2018-05-18T09:52:00.000Z,20.2
2018-05-18T09:57:00.000Z,20.3
2018-05-18T10:02:00.000Z,20.5
2018-05-18T10:07:00.000Z,20.7
2018-05-18T10:12:00.000Z,21.2
2018-05-18T10:17:00.000Z,21.4
2018-05-18T10:22:00.000Z,21.5
2018-05-18T10:27:00.000Z,21.7
2018-05-18T10:32:00.000Z,22.1
2018-05-18T10:37:00.000Z,22.3
2018-05-18T10:42:00.000Z,22.7
2018-05-18T10:47:00.000Z,22.8
2018-05-18T10:52:00.000Z,22.8
2018-05-18T10:57:00.000Z,22.9
2018-05-18T11:02:00.000Z,22.8
2018-05-18T11:07:00.000Z,23.1
2018-05-18T11:12:00.000Z,23.0
2018-05-18T11:17:00.000Z,22.8
2018-05-18T11:22:00.000Z,22.9
2018-05-18T11:27:00.000Z,23.0
2018-05-18T11:32:00.000Z,23.2
2018-05-18T11:37:00.000Z,23.2
2018-05-18T11:42:00.000Z,22.8
2018-05-18T11:47:00.000Z,22.4
2018-05-18T11:52:00.000Z,22.4
2018-05-18T11:57:00.000Z,22.4
2018-05-18T12:02:00.000Z,22.5
2018-05-18T12:07:00.000Z,22.6
2018-05-18T12:12:00.000Z,22.5
2018-05-18T12:17:00.000Z,22.3
2018-05-18T12:22:00.000Z,22.2
2018-05-18T12:27:00.000Z,22.2
2018-05-18T12:32:00.000Z,22.3
2018-05-18T12:37:00.000Z,22.3
2018-05-18T12:42:00.000Z,22.6
2018-05-18T12:47:00.000Z,22.8
2018-05-18T12:52:00.000Z,23.0
2018-05-18T12:57:00.000Z,23.0
2018-05-18T13:02:00.000Z,23.0
2018-05-18T13:07:00.000Z,23.1
2018-05-18T13:12:00.000Z,23.2
2018-05-18T13:17:00.000Z,23.3
2018-05-18T13:22:00.000Z,23.4
2018-05-18T13:27:00.000Z,23.2
2018-05-18T13:32:00.000Z,23.2
2018-05-18T13:37:00.000Z,23.3
2018-05-18T13:42:00.000Z,23.5
2018-05-18T13:47:00.000Z,23.7
2018-05-18T13:52:00.000Z,23.9
2018-05-18T13:57:00.000Z,23.7
2018-05-18T14:02:00.000Z,23.9
2018-05-18T14:07:00.000Z,24.0
2018-05-18T14:12:00.000Z,23.8
2018-05-18T14:17:00.000Z,23.6
2018-05-18T14:22:00.000Z,23.3
2018-05-18T14:28:00.000Z,23.1
2018-05-18T14:33:00.000Z,22.8
2018-05-18T14:38:00.000Z,22.7
2018-05-18T14:43:00.000Z,22.6
2018-05-18T14:48:00.000Z,22.9
2018-05-18T14:53:00.000Z,23.1
2018-05-18T14:58:00.000Z,23.1
2018-05-18T15:03:00.000Z,23.1
2018-05-18T15:08:00.000Z,22.8
2018-05-18T15:13:00.000Z,22.5
2018-05-18T15:18:00.000Z,22.4
2018-05-18T15:23:00.000Z,22.2
2018-05-18T15:28:00.000Z,22.2
2018-05-18T15:33:00.000Z,22.3
2018-05-18T15:38:00.000Z,22.2
2018-05-18T15:43:00.000Z,22.4
2018-05-18T15:48:00.000Z,22.4
2018-05-18T15:53:00.000Z,22.5
2018-05-18T15:58:00.000Z,22.4
2018-05-18T16:03:00.000Z,22.4
2018-05-18T16:08:00.000Z,22.2
2018-05-18T16:13:00.000Z,21.9
2018-05-18T16:18:00.000Z,21.6
2018-05-18T16:23:00.000Z,21.2
2018-05-18T16:28:00.000Z,20.9
2018-05-18T16:33:00.000Z,20.8
2018-05-18T16:38:00.000Z,20.6
2018-05-18T16:43:00.000Z,20.5
2018-05-18T16:48:00.000Z,20.3
2018-05-18T16:53:00.000Z,20.1
2018-05-18T16:58:00.000Z,19.9
2018-05-18T17:03:00.000Z,19.7
2018-05-18T17:08:00.000Z,19.4
2018-05-18T17:13:00.000Z,19.2
2018-05-18T17:18:00.000Z,19.1
2018-05-18T17:23:00.000Z,19.0
2018-05-18T17:28:00.000Z,18.8
2018-05-18T17:33:00.000Z,18.7
2018-05-18T17:38:00.000Z,18.6
2018-05-18T17:43:00.000Z,18.5
2018-05-18T17:48:00.000Z,18.3
2018-05-18T17:53:00.000Z,18.1
2018-05-18T17:58:00.000Z,17.9
2018-05-18T18:03:00.000Z,17.7
2018-05-18T18:08:00.000Z,17.5
2018-05-18T18:13:00.000Z,17.4
2018-05-18T18:18:00.000Z,17.2
2018-05-18T18:23:00.000Z,17.1
2018-05-18T18:28:00.000Z,17.0
2018-05-18T18:33:00.000Z,16.9
2018-05-18T18:38:00.000Z,16.8
2018-05-18T18:43:00.000Z,16.7
2018-05-18T18:48:00.000Z,16.6
2018-05-18T18:53:00.000Z,16.5
2018-05-18T18:58:00.000Z,16.4
2018-05-18T19:03:00.000Z,16.4
2018-05-18T19:08:00.000Z,16.3
2018-05-18T19:13:00.000Z,16.2
2018-05-18T19:18:00.000Z,16.2
2018-05-18T19:23:00.000Z,16.2
2018-05-18T19:28:00.000Z,16.1
2018-05-18T19:33:00.000Z,16.0
2018-05-18T19:38:00.000Z,16.0
2018-05-18T19:43:00.000Z,15.9
2018-05-18T19:48:00.000Z,15.9
2018-05-18T19:53:00.000Z,15.8
2018-05-18T19:58:00.000Z,15.8
2018-05-18T20:03:00.000Z,15.8
2018-05-18T20:08:00.000Z,15.7
2018-05-18T20:13:00.000Z,15.7
2018-05-18T20:18:00.000Z,15.7
2018-05-18T20:23:00.000Z,15.7
2018-05-18T20:28:00.000Z,15.7
2018-05-18T20:34:00.000Z,15.7
2018-05-18T20:39:00.000Z,15.7
2018-05-18T20:44:00.000Z,15.7
2018-05-18T20:49:00.000Z,15.6
2018-05-18T20:54:00.000Z,15.6
2018-05-18T20:59:00.000Z,15.6
2018-05-18T21:04:00.000Z,15.6
2018-05-18T21:09:00.000Z,15.6
2018-05-18T21:14:00.000Z,15.6
2018-05-18T21:19:00.000Z,15.5
2018-05-18T21:24:00.000Z,15.5
2018-05-18T21:29:00.000Z,15.5
2018-05-18T21:34:00.000Z,15.5
2018-05-18T21:39:00.000Z,15.5
2018-05-18T21:44:00.000Z,15.5
2018-05-18T21:49:00.000Z,15.5
2018-05-18T21:54:00.000Z,15.5
2018-05-18T21:59:00.000Z,15.5
2018-05-18T22:04:00.000Z,15.4
2018-05-18T22:09:00.000Z,15.4
2018-05-18T22:14:00.000Z,15.4
2018-05-18T22:19:00.000Z,15.5
2018-05-18T22:24:00.000Z,15.6
2018-05-18T22:29:00.000Z,15.7
2018-05-18T22:34:00.000Z,15.7
2018-05-18T22:39:00.000Z,15.8
2018-05-18T22:44:00.000Z,15.8
2018-05-18T22:49:00.000Z,15.8
2018-05-18T22:54:00.000Z,15.8
2018-05-18T22:59:00.000Z,15.8
2018-05-18T23:04:00.000Z,15.8
2018-05-18T23:09:00.000Z,15.8
2018-05-18T23:14:00.000Z,15.8
2018-05-18T23:19:00.000Z,15.7
2018-05-18T23:24:00.000Z,15.7
2018-05-18T23:29:00.000Z,15.6
2018-05-18T23:34:00.000Z,15.6
2018-05-18T23:39:00.000Z,15.4
2018-05-18T23:44:00.000Z,15.3
2018-05-18T23:49:00.000Z,15.2
2018-05-18T23:54:00.000Z,15.2
2018-05-18T23:59:00.000Z,15.1
